createdAt,value
2019-03-27T00:00:50.625Z,4.87
2019-03-27T00:05:57.394Z,5.25
2019-03-27T00:11:04.595Z,4.72
2019-03-27T00:16:11.340Z,5.25
2019-03-27T00:21:19.001Z,4.75
2019-03-27T00:26:26.921Z,5.00
2019-03-27T00:31:33.616Z,7.00
2019-03-27T00:36:40.666Z,5.70
2019-03-27T00:41:47.309Z,5.78
2019-03-27T00:46:53.890Z,6.05
2019-03-27T00:52:00.724Z,5.65
2019-03-27T00:57:07.376Z,6.37
2019-03-27T01:02:15.679Z,5.70
2019-03-27T01:07:22.535Z,6.45
2019-03-27T01:12:29.214Z,5.42
2019-03-27T01:17:35.858Z,5.92
2019-03-27T01:22:42.572Z,6.20
2019-03-27T01:27:49.294Z,6.08
2019-03-27T01:32:55.845Z,5.15
2019-03-27T01:38:02.710Z,5.80
2019-03-27T01:43:09.514Z,5.72
2019-03-27T01:48:16.136Z,6.12
2019-03-27T01:53:22.919Z,6.62
2019-03-27T01:58:29.660Z,8.43
2019-03-27T02:03:36.194Z,7.12
2019-03-27T02:08:43.049Z,7.62
2019-03-27T02:13:49.649Z,6.22
2019-03-27T02:18:56.288Z,5.95
2019-03-27T02:24:03.078Z,5.37
2019-03-27T02:29:09.673Z,5.80
2019-03-27T02:34:16.476Z,5.42
2019-03-27T02:39:23.150Z,5.70
2019-03-27T02:44:30.044Z,5.30
2019-03-27T02:49:36.655Z,5.87
2019-03-27T02:54:43.482Z,5.58
2019-03-27T02:59:50.300Z,5.85
2019-03-27T03:04:56.992Z,5.75
2019-03-27T03:10:03.623Z,5.30
2019-03-27T03:15:10.846Z,5.58
2019-03-27T03:20:17.646Z,5.22
2019-03-27T03:25:24.333Z,5.37
2019-03-27T03:30:31.133Z,5.95
2019-03-27T03:35:37.872Z,5.87
2019-03-27T03:40:44.839Z,5.97
2019-03-27T03:45:51.737Z,6.08
2019-03-27T03:51:00.774Z,6.87
2019-03-27T03:56:08.467Z,5.53
2019-03-27T04:01:16.226Z,5.30
2019-03-27T04:06:22.946Z,5.92
2019-03-27T04:11:29.741Z,6.53
2019-03-27T04:16:36.404Z,7.15
2019-03-27T04:21:43.183Z,5.97
2019-03-27T04:26:49.999Z,6.58
2019-03-27T04:31:56.672Z,6.80
2019-03-27T04:37:03.318Z,6.17
2019-03-27T04:42:10.265Z,6.37
2019-03-27T04:47:31.548Z,6.45
2019-03-27T04:52:26.827Z,6.28
2019-03-27T04:57:33.830Z,6.03
2019-03-27T05:02:40.934Z,6.22
2019-03-27T05:07:47.597Z,6.00
2019-03-27T05:12:54.252Z,6.67
2019-03-27T05:18:00.960Z,6.95
2019-03-27T05:23:07.550Z,8.18
2019-03-27T05:28:14.449Z,6.50
2019-03-27T05:33:21.194Z,7.35
2019-03-27T05:38:27.896Z,7.37
2019-03-27T05:43:34.721Z,7.08
2019-03-27T05:48:41.380Z,7.55
2019-03-27T05:53:48.251Z,8.13
2019-03-27T05:58:54.817Z,8.03
2019-03-27T06:04:01.460Z,6.83
2019-03-27T06:09:08.677Z,9.98
2019-03-27T06:14:15.620Z,18.90
2019-03-27T06:19:23.587Z,13.88
2019-03-27T06:24:30.400Z,13.98
2019-03-27T06:29:37.292Z,12.00
2019-03-27T06:34:44.092Z,9.97
2019-03-27T06:39:50.825Z,9.40
2019-03-27T06:44:57.365Z,10.70
2019-03-27T06:50:04.469Z,10.37
2019-03-27T06:55:11.230Z,10.20
2019-03-27T07:00:20.367Z,10.90
2019-03-27T07:05:26.956Z,11.40
2019-03-27T07:10:33.534Z,10.88
2019-03-27T07:15:40.125Z,10.20
2019-03-27T07:20:46.815Z,11.10
2019-03-27T07:25:53.426Z,11.70
2019-03-27T07:31:00.273Z,10.90
2019-03-27T07:36:07.065Z,11.43
2019-03-27T07:41:13.666Z,11.90
2019-03-27T07:46:20.632Z,12.03
2019-03-27T07:51:28.006Z,12.50
2019-03-27T07:56:34.668Z,12.35
2019-03-27T08:01:41.722Z,11.85
2019-03-27T08:06:48.363Z,11.78
2019-03-27T08:11:55.032Z,12.75
2019-03-27T08:17:01.795Z,12.33
2019-03-27T08:22:08.388Z,11.90
2019-03-27T08:27:15.008Z,12.53
2019-03-27T08:32:21.619Z,12.28
2019-03-27T08:37:28.598Z,12.05
2019-03-27T08:42:35.799Z,11.00
2019-03-27T08:47:42.434Z,11.10
2019-03-27T08:52:49.151Z,11.18
2019-03-27T08:57:55.930Z,11.97
2019-03-27T09:03:02.500Z,10.95
2019-03-27T09:08:09.408Z,10.85
2019-03-27T09:13:17.461Z,11.25
2019-03-27T09:18:24.326Z,10.58
2019-03-27T09:23:30.936Z,10.32
2019-03-27T09:28:37.611Z,9.83
2019-03-27T09:33:45.611Z,9.48
2019-03-27T09:38:52.387Z,8.50
2019-03-27T09:44:00.223Z,7.67
2019-03-27T09:49:09.407Z,7.65
2019-03-27T09:54:16.152Z,6.70
2019-03-27T09:59:22.942Z,7.97
2019-03-27T10:04:29.642Z,6.37
2019-03-27T10:09:36.637Z,6.33
2019-03-27T10:14:43.258Z,7.50
2019-03-27T10:20:02.888Z,6.05
2019-03-27T10:24:58.629Z,6.67
2019-03-27T10:30:05.577Z,5.60
2019-03-27T10:35:13.074Z,5.22
2019-03-27T10:40:20.028Z,5.58
2019-03-27T10:45:26.973Z,5.83
2019-03-27T10:50:33.592Z,6.30
2019-03-27T10:55:40.468Z,5.58
2019-03-27T11:00:47.089Z,5.90
2019-03-27T11:05:53.706Z,6.33
2019-03-27T11:11:00.552Z,5.72
2019-03-27T11:16:07.293Z,4.83
2019-03-27T11:21:14.086Z,6.03
2019-03-27T11:26:20.880Z,6.22
2019-03-27T11:31:27.633Z,5.70
2019-03-27T11:36:35.281Z,5.87
2019-03-27T11:41:42.147Z,8.33
2019-03-27T11:46:48.824Z,5.80
2019-03-27T11:51:55.530Z,5.62
2019-03-27T11:57:03.458Z,5.22
2019-03-27T12:02:10.499Z,4.75
2019-03-27T12:07:17.220Z,4.70
2019-03-27T12:12:23.844Z,4.75
2019-03-27T12:17:30.695Z,4.83
2019-03-27T12:22:37.591Z,4.95
2019-03-27T12:27:44.286Z,5.47
2019-03-27T12:32:51.189Z,4.83
2019-03-27T12:37:59.216Z,5.20
2019-03-27T12:43:06.211Z,5.45
2019-03-27T12:48:12.982Z,5.80
2019-03-27T12:53:20.202Z,5.05
2019-03-27T12:58:28.962Z,4.67
2019-03-27T13:03:35.710Z,5.85
2019-03-27T13:08:42.668Z,4.70
2019-03-27T13:13:49.282Z,4.85
2019-03-27T13:18:57.718Z,5.33
2019-03-27T13:24:04.643Z,6.00
2019-03-27T13:29:12.842Z,5.45
2019-03-27T13:34:19.685Z,5.70
2019-03-27T13:39:26.564Z,5.70
2019-03-27T13:44:37.195Z,5.83
2019-03-27T13:49:42.253Z,5.33
2019-03-27T13:54:48.948Z,5.50
2019-03-27T13:59:56.721Z,6.15
2019-03-27T14:05:03.710Z,6.30
2019-03-27T14:10:10.913Z,5.60
2019-03-27T14:15:19.127Z,5.53
2019-03-27T14:20:45.825Z,6.60
2019-03-27T14:25:53.163Z,4.95
2019-03-27T14:31:00.831Z,5.65
2019-03-27T14:36:07.555Z,5.87
2019-03-27T14:41:15.038Z,4.87
2019-03-27T14:46:21.553Z,5.58
2019-03-27T14:51:28.440Z,4.50
2019-03-27T14:56:35.209Z,4.67
2019-03-27T15:01:42.081Z,4.35
2019-03-27T15:06:50.111Z,4.62
2019-03-27T15:11:58.362Z,4.58
2019-03-27T15:17:05.657Z,4.65
2019-03-27T15:22:22.481Z,4.80
2019-03-27T15:27:22.271Z,4.30
2019-03-27T15:32:29.108Z,5.45
2019-03-27T15:37:36.006Z,5.20
2019-03-27T15:42:42.702Z,5.03
2019-03-27T15:47:50.375Z,4.90
2019-03-27T15:52:59.631Z,5.33
2019-03-27T15:58:06.529Z,4.78
2019-03-27T16:03:13.209Z,4.47
2019-03-27T16:08:20.838Z,5.12
2019-03-27T16:13:27.533Z,4.92
2019-03-27T16:18:34.328Z,5.87
2019-03-27T16:23:41.013Z,6.40
2019-03-27T16:28:47.780Z,5.83
2019-03-27T16:33:54.449Z,5.58
2019-03-27T16:39:01.150Z,5.40
2019-03-27T16:44:08.041Z,4.62
2019-03-27T16:49:14.737Z,6.15
2019-03-27T16:54:22.660Z,6.30
2019-03-27T16:59:29.514Z,5.37
2019-03-27T17:04:36.148Z,5.90
2019-03-27T17:09:42.947Z,5.72
2019-03-27T17:14:49.559Z,5.30
2019-03-27T17:19:56.899Z,6.10
2019-03-27T17:25:03.595Z,5.83
2019-03-27T17:30:10.914Z,6.20
2019-03-27T17:35:17.835Z,5.33
2019-03-27T17:40:24.919Z,5.25
2019-03-27T17:45:33.085Z,5.05
2019-03-27T17:50:40.554Z,5.67
2019-03-27T17:55:47.621Z,5.45
2019-03-27T18:00:57.120Z,5.08
2019-03-27T18:06:03.968Z,4.67
2019-03-27T18:11:10.804Z,5.65
2019-03-27T18:16:17.568Z,5.70
2019-03-27T18:21:24.329Z,5.70
2019-03-27T18:26:32.368Z,5.87
2019-03-27T18:31:39.203Z,5.87
2019-03-27T18:36:46.191Z,5.50
2019-03-27T18:41:52.912Z,5.22
2019-03-27T18:46:59.641Z,5.72
2019-03-27T18:52:06.656Z,5.58
2019-03-27T18:57:13.400Z,5.33
2019-03-27T19:02:20.041Z,5.83
2019-03-27T19:07:27.002Z,6.40
2019-03-27T19:12:34.972Z,5.60
2019-03-27T19:17:41.796Z,6.37
2019-03-27T19:22:49.689Z,7.03
2019-03-27T19:27:56.621Z,6.92
2019-03-27T19:33:04.711Z,7.00
2019-03-27T19:38:11.358Z,7.05
2019-03-27T19:43:17.921Z,7.60
2019-03-27T19:48:24.617Z,6.90
2019-03-27T19:53:32.716Z,6.75
2019-03-27T19:58:39.413Z,5.95
2019-03-27T20:03:46.068Z,6.33
2019-03-27T20:08:56.592Z,6.50
2019-03-27T20:14:02.106Z,7.22
2019-03-27T20:19:08.850Z,6.60
2019-03-27T20:24:15.528Z,6.37
2019-03-27T20:29:22.955Z,7.55
2019-03-27T20:34:29.609Z,7.45
2019-03-27T20:39:36.301Z,7.12
2019-03-27T20:44:43.250Z,7.85
2019-03-27T20:49:49.889Z,7.58
2019-03-27T20:54:56.991Z,7.90
2019-03-27T21:00:04.160Z,7.47
2019-03-27T21:05:11.089Z,8.03
2019-03-27T21:10:17.891Z,9.10
2019-03-27T21:15:24.458Z,8.28
2019-03-27T21:20:31.069Z,8.83
2019-03-27T21:25:37.510Z,8.98
2019-03-27T21:30:44.100Z,9.08
2019-03-27T21:35:50.859Z,10.05
2019-03-27T21:40:57.361Z,8.38
2019-03-27T21:46:04.853Z,9.13
2019-03-27T21:51:11.803Z,9.90
2019-03-27T21:56:18.387Z,10.68
2019-03-27T22:01:25.031Z,9.43
2019-03-27T22:06:31.778Z,8.63
2019-03-27T22:11:38.370Z,8.55
2019-03-27T22:16:45.070Z,8.23
2019-03-27T22:21:51.711Z,9.83
2019-03-27T22:26:58.603Z,9.05
2019-03-27T22:32:05.379Z,8.53
2019-03-27T22:37:11.977Z,9.05
2019-03-27T22:42:18.806Z,8.55
2019-03-27T22:47:25.534Z,9.70
2019-03-27T22:52:32.289Z,9.95
2019-03-27T22:57:39.828Z,9.30
2019-03-27T23:02:46.461Z,10.60
2019-03-27T23:07:53.093Z,11.55
2019-03-27T23:12:59.792Z,10.55
2019-03-27T23:18:07.598Z,10.55
2019-03-27T23:23:16.654Z,11.10
2019-03-27T23:28:23.491Z,10.70
2019-03-27T23:33:30.235Z,11.45
2019-03-27T23:38:36.938Z,11.18
2019-03-27T23:43:43.942Z,12.20
2019-03-27T23:48:50.682Z,12.10
2019-03-27T23:53:57.440Z,11.15
2019-03-27T23:59:04.520Z,12.25
